createdAt,value
2022-12-20T00:01:37.227Z,0.80
2022-12-20T00:04:05.906Z,0.80
2022-12-20T00:06:35.254Z,0.70
2022-12-20T00:09:03.492Z,0.80
2022-12-20T00:11:30.958Z,0.70
2022-12-20T00:13:58.702Z,0.80
2022-12-20T00:16:28.302Z,0.70
2022-12-20T00:19:03.651Z,0.80
2022-12-20T00:21:31.261Z,0.70
2022-12-20T00:23:58.481Z,0.80
2022-12-20T00:26:30.460Z,0.70
2022-12-20T00:28:58.038Z,0.70
2022-12-20T00:31:26.042Z,0.70
2022-12-20T00:33:54.570Z,0.70
2022-12-20T00:36:22.465Z,0.70
2022-12-20T00:38:50.722Z,0.80
2022-12-20T00:41:22.372Z,0.70
2022-12-20T00:43:51.408Z,0.70
2022-12-20T00:46:19.663Z,0.70
2022-12-20T00:48:47.144Z,0.70
2022-12-20T00:51:17.940Z,0.70
2022-12-20T00:53:45.323Z,0.70
2022-12-20T00:56:12.858Z,0.70
2022-12-20T00:58:41.396Z,0.70
2022-12-20T01:01:25.843Z,0.60
2022-12-20T01:03:53.220Z,0.70
2022-12-20T01:06:20.491Z,0.60
2022-12-20T01:08:47.737Z,0.60
2022-12-20T01:11:20.750Z,0.50
2022-12-20T01:13:50.541Z,0.50
2022-12-20T01:16:38.419Z,0.50
2022-12-20T01:19:06.837Z,0.60
2022-12-20T01:21:34.262Z,0.50
2022-12-20T01:24:01.471Z,0.50
2022-12-20T01:26:31.099Z,0.50
2022-12-20T01:28:59.915Z,0.50
2022-12-20T01:31:27.651Z,0.50
2022-12-20T01:33:54.811Z,0.50
2022-12-20T01:36:27.739Z,0.50
2022-12-20T01:39:08.659Z,0.50
2022-12-20T01:41:37.929Z,0.60
2022-12-20T01:44:25.291Z,0.60
2022-12-20T01:46:53.729Z,0.70
2022-12-20T01:49:32.277Z,0.70
2022-12-20T01:52:07.667Z,0.80
2022-12-20T01:54:43.810Z,0.80
2022-12-20T01:57:56.031Z,0.80
2022-12-20T02:00:23.461Z,0.80
2022-12-20T02:02:51.113Z,0.80
2022-12-20T02:05:21.183Z,0.80
2022-12-20T02:07:50.128Z,0.80
2022-12-20T02:10:17.731Z,0.80
2022-12-20T02:12:46.301Z,0.90
2022-12-20T02:15:17.197Z,0.90
2022-12-20T02:17:50.159Z,0.90
2022-12-20T02:20:35.518Z,0.90
2022-12-20T02:23:24.573Z,0.80
2022-12-20T02:26:31.752Z,0.80
2022-12-20T02:29:35.826Z,0.70
2022-12-20T02:32:22.598Z,0.70
2022-12-20T02:34:49.874Z,0.70
2022-12-20T02:37:17.274Z,0.60
2022-12-20T02:39:44.806Z,0.60
2022-12-20T02:42:14.211Z,0.60
2022-12-20T02:45:19.879Z,0.70
2022-12-20T02:47:57.237Z,0.70
2022-12-20T02:50:32.277Z,0.60
2022-12-20T02:52:59.732Z,0.60
2022-12-20T02:55:53.301Z,0.60
2022-12-20T02:58:37.494Z,0.70
2022-12-20T03:03:19.152Z,0.70
2022-12-20T03:05:47.611Z,0.80
2022-12-20T03:08:19.492Z,0.80
2022-12-20T03:10:47.300Z,0.80
2022-12-20T03:13:14.511Z,0.90
2022-12-20T03:15:48.660Z,0.90
2022-12-20T03:18:16.095Z,1.00
2022-12-20T03:20:43.508Z,1.00
2022-12-20T03:23:10.702Z,1.00
2022-12-20T03:25:39.083Z,1.10
2022-12-20T03:28:09.001Z,1.10
2022-12-20T03:30:36.851Z,1.00
2022-12-20T03:33:04.080Z,1.00
2022-12-20T03:35:31.674Z,1.00
2022-12-20T03:37:59.067Z,0.90
2022-12-20T03:40:26.511Z,1.00
2022-12-20T03:42:54.304Z,0.90
2022-12-20T03:45:21.656Z,0.90
2022-12-20T03:47:49.351Z,0.90
2022-12-20T03:50:16.665Z,0.90
2022-12-20T03:52:44.218Z,0.80
2022-12-20T03:55:12.691Z,0.90
2022-12-20T03:57:42.345Z,0.80
2022-12-20T04:00:23.505Z,0.80
2022-12-20T04:02:55.434Z,0.80
2022-12-20T04:05:23.298Z,0.90
2022-12-20T04:07:51.135Z,0.90
2022-12-20T04:10:18.412Z,1.00
2022-12-20T04:12:45.940Z,1.00
2022-12-20T04:15:16.045Z,1.00
2022-12-20T04:17:44.893Z,1.00
2022-12-20T04:20:21.657Z,1.00
2022-12-20T04:22:56.886Z,0.90
2022-12-20T04:25:24.109Z,0.90
2022-12-20T04:27:51.981Z,0.90
2022-12-20T04:30:19.206Z,0.90
2022-12-20T04:32:46.553Z,0.90
2022-12-20T04:35:13.884Z,0.80
2022-12-20T04:37:42.995Z,0.80
2022-12-20T04:40:10.955Z,0.80
2022-12-20T04:42:49.685Z,0.80
2022-12-20T04:45:17.616Z,0.70
2022-12-20T04:47:45.095Z,0.60
2022-12-20T04:50:14.625Z,0.60
2022-12-20T04:53:02.557Z,0.60
2022-12-20T04:55:30.207Z,0.60
2022-12-20T04:58:02.127Z,0.60
2022-12-20T05:00:35.495Z,0.60
2022-12-20T05:03:10.682Z,0.60
2022-12-20T05:05:38.076Z,0.60
2022-12-20T05:08:05.345Z,0.60
2022-12-20T05:10:32.538Z,0.50
2022-12-20T05:13:08.854Z,0.60
2022-12-20T05:15:40.382Z,0.60
2022-12-20T05:18:07.936Z,0.60
2022-12-20T05:20:45.225Z,0.60
2022-12-20T05:23:31.212Z,0.60
2022-12-20T05:26:18.228Z,0.50
2022-12-20T05:28:45.962Z,0.50
2022-12-20T05:31:13.343Z,0.50
2022-12-20T05:33:40.577Z,0.50
2022-12-20T05:36:09.332Z,0.50
2022-12-20T05:38:37.073Z,0.40
2022-12-20T05:41:10.806Z,0.40
2022-12-20T05:43:38.260Z,0.40
2022-12-20T05:46:05.810Z,0.40
2022-12-20T05:48:41.755Z,0.50
2022-12-20T05:51:09.551Z,0.40
2022-12-20T05:53:50.805Z,0.40
2022-12-20T05:56:21.606Z,0.50
2022-12-20T05:58:48.880Z,0.50
2022-12-20T06:01:16.194Z,0.50
2022-12-20T06:03:43.493Z,0.60
2022-12-20T06:06:15.393Z,0.60
2022-12-20T06:08:45.378Z,0.60
2022-12-20T06:11:18.661Z,0.60
2022-12-20T06:13:51.117Z,0.70
2022-12-20T06:16:20.769Z,0.70
2022-12-20T06:18:48.466Z,0.70
2022-12-20T06:21:16.794Z,0.70
2022-12-20T06:23:44.649Z,0.70
2022-12-20T06:26:13.884Z,0.70
2022-12-20T06:28:52.693Z,0.70
2022-12-20T06:31:34.394Z,0.70
2022-12-20T06:34:01.649Z,0.70
2022-12-20T06:36:33.868Z,0.80
2022-12-20T06:39:07.653Z,0.80
2022-12-20T06:41:40.307Z,0.90
2022-12-20T06:44:07.918Z,0.90
2022-12-20T06:46:35.176Z,0.90
2022-12-20T06:49:02.487Z,0.90
2022-12-20T06:51:46.094Z,0.90
2022-12-20T06:54:19.315Z,0.90
2022-12-20T06:56:47.447Z,1.00
2022-12-20T06:59:14.636Z,1.10
2022-12-20T07:01:41.970Z,1.10
2022-12-20T07:04:09.238Z,1.10
2022-12-20T07:06:36.708Z,1.10
2022-12-20T07:09:04.119Z,1.20
2022-12-20T07:11:31.329Z,1.10
2022-12-20T07:13:58.830Z,1.10
2022-12-20T07:16:26.125Z,1.10
2022-12-20T07:18:56.148Z,1.10
2022-12-20T07:21:23.581Z,1.10
2022-12-20T07:23:50.740Z,1.10
2022-12-20T07:26:18.045Z,1.10
2022-12-20T07:28:45.280Z,1.20
2022-12-20T07:31:12.463Z,1.10
2022-12-20T07:33:39.761Z,1.20
2022-12-20T07:36:11.559Z,1.10
2022-12-20T07:38:38.855Z,1.10
2022-12-20T07:41:14.483Z,1.10
2022-12-20T07:43:41.999Z,1.10
2022-12-20T07:46:09.380Z,1.00
2022-12-20T07:48:36.712Z,1.00
2022-12-20T07:51:18.087Z,0.90
2022-12-20T07:53:52.375Z,1.00
2022-12-20T07:56:20.966Z,1.10
2022-12-20T07:58:48.345Z,1.00
2022-12-20T08:01:15.617Z,0.90
2022-12-20T08:03:49.828Z,0.90
2022-12-20T08:06:18.048Z,0.80
2022-12-20T08:08:51.435Z,0.70
2022-12-20T08:11:18.680Z,0.80
2022-12-20T08:13:46.807Z,0.70
2022-12-20T08:16:14.434Z,0.70
2022-12-20T08:18:41.620Z,0.70
2022-12-20T08:21:09.110Z,0.70
2022-12-20T08:23:36.313Z,0.80
2022-12-20T08:26:03.481Z,0.90
2022-12-20T08:28:30.720Z,0.90
2022-12-20T08:31:06.307Z,1.00
2022-12-20T08:33:34.958Z,1.00
2022-12-20T08:36:05.591Z,1.00
2022-12-20T08:38:33.085Z,1.10
2022-12-20T08:41:11.694Z,1.10
2022-12-20T08:43:39.239Z,1.10
2022-12-20T08:46:07.193Z,1.00
2022-12-20T08:48:34.570Z,1.10
2022-12-20T08:51:08.596Z,1.10
2022-12-20T08:53:36.054Z,1.10
2022-12-20T08:56:14.898Z,1.10
2022-12-20T08:58:42.895Z,1.10
2022-12-20T09:01:15.394Z,1.10
2022-12-20T09:03:42.899Z,1.20
2022-12-20T09:06:16.145Z,1.20
2022-12-20T09:08:43.516Z,1.20
2022-12-20T09:11:22.681Z,1.20
2022-12-20T09:13:51.707Z,1.20
2022-12-20T09:16:23.451Z,1.20
2022-12-20T09:18:51.604Z,1.20
2022-12-20T09:21:19.194Z,1.20
2022-12-20T09:23:46.456Z,1.30
2022-12-20T09:26:15.311Z,1.40
2022-12-20T09:28:43.003Z,1.50
2022-12-20T09:31:16.158Z,1.50
2022-12-20T09:33:43.550Z,1.70
2022-12-20T09:36:18.217Z,2.10
2022-12-20T09:38:45.766Z,2.10
2022-12-20T09:41:29.439Z,2.10
2022-12-20T09:43:58.049Z,2.10
2022-12-20T09:46:25.407Z,2.10
2022-12-20T09:48:52.624Z,1.90
2022-12-20T09:51:32.693Z,1.90
2022-12-20T09:54:13.169Z,1.90
2022-12-20T09:57:22.379Z,1.90
2022-12-20T09:59:50.211Z,1.90
2022-12-20T10:05:24.148Z,2.00
2022-12-20T10:08:16.342Z,2.10
2022-12-20T10:10:59.662Z,2.10
2022-12-20T10:14:01.577Z,2.10
2022-12-20T10:16:45.657Z,2.10
2022-12-20T10:19:36.648Z,2.10
2022-12-20T10:22:21.177Z,2.10
2022-12-20T10:25:23.329Z,2.00
2022-12-20T10:27:52.778Z,2.00
2022-12-20T10:30:22.569Z,2.00
2022-12-20T10:32:55.028Z,2.10
2022-12-20T10:35:29.285Z,2.10
2022-12-20T10:38:08.280Z,2.20
2022-12-20T10:43:42.781Z,2.20
2022-12-20T10:46:10.049Z,2.20
2022-12-20T10:48:41.873Z,2.20
2022-12-20T10:51:15.072Z,2.20
2022-12-20T10:54:03.547Z,2.20
2022-12-20T10:56:36.384Z,2.20
2022-12-20T10:59:23.981Z,2.20
2022-12-20T11:01:51.345Z,2.30
2022-12-20T11:04:36.291Z,2.40
2022-12-20T11:07:21.446Z,2.60
2022-12-20T11:10:26.412Z,2.70
2022-12-20T11:13:00.716Z,2.80
2022-12-20T11:15:37.143Z,2.90
2022-12-20T11:19:01.937Z,3.00
2022-12-20T11:21:54.843Z,3.00
2022-12-20T11:24:55.567Z,3.10
2022-12-20T11:27:53.263Z,3.10
2022-12-20T11:30:23.616Z,3.20
2022-12-20T11:33:19.668Z,3.20
2022-12-20T11:35:59.286Z,3.30
2022-12-20T11:38:43.498Z,3.30
2022-12-20T11:41:31.076Z,3.40
2022-12-20T11:44:26.336Z,3.50
2022-12-20T11:47:10.504Z,3.60
2022-12-20T11:50:25.812Z,3.60
2022-12-20T11:53:00.675Z,3.70
2022-12-20T11:55:31.485Z,3.70
2022-12-20T11:58:19.419Z,3.70
2022-12-20T12:01:02.083Z,3.80
2022-12-20T12:03:37.755Z,3.80
2022-12-20T12:06:10.586Z,3.80
2022-12-20T12:08:50.432Z,3.80
2022-12-20T12:14:32.440Z,3.70
2022-12-20T12:17:05.992Z,3.70
2022-12-20T12:19:34.507Z,3.70
2022-12-20T12:22:11.078Z,3.70
2022-12-20T12:24:45.700Z,3.70
2022-12-20T12:27:20.432Z,3.70
2022-12-20T12:29:47.966Z,3.70
2022-12-20T12:32:24.300Z,3.70
2022-12-20T12:35:07.208Z,3.70
2022-12-20T12:38:18.513Z,3.70
2022-12-20T12:41:10.288Z,3.70
2022-12-20T12:44:19.487Z,3.70
2022-12-20T12:47:08.167Z,3.70
2022-12-20T12:49:35.413Z,3.60
2022-12-20T12:52:03.992Z,3.60
2022-12-20T12:54:41.209Z,3.60
2022-12-20T12:57:18.805Z,3.60
2022-12-20T12:59:48.480Z,3.50
2022-12-20T13:02:17.889Z,3.50
2022-12-20T13:05:09.079Z,3.50
2022-12-20T13:07:36.596Z,3.50
2022-12-20T13:10:09.800Z,3.40
2022-12-20T13:12:36.887Z,3.40
2022-12-20T13:15:24.019Z,3.40
2022-12-20T13:18:01.001Z,3.40
2022-12-20T13:20:30.440Z,3.40
2022-12-20T13:23:10.425Z,3.40
2022-12-20T13:25:53.907Z,3.40
2022-12-20T13:28:24.069Z,3.40
2022-12-20T13:30:54.235Z,3.40
2022-12-20T13:33:38.546Z,3.30
2022-12-20T13:36:52.738Z,3.30
2022-12-20T13:39:23.045Z,3.20
2022-12-20T13:42:26.881Z,3.20
2022-12-20T13:44:54.118Z,3.20
2022-12-20T13:47:31.526Z,3.20
2022-12-20T13:50:32.899Z,3.10
2022-12-20T13:53:00.162Z,3.10
2022-12-20T13:55:37.690Z,3.00
2022-12-20T13:58:26.672Z,3.00
2022-12-20T14:00:54.396Z,3.00
2022-12-20T14:03:27.675Z,2.90
2022-12-20T14:06:05.217Z,2.90
2022-12-20T14:08:34.141Z,2.90
2022-12-20T14:11:15.278Z,2.80
2022-12-20T14:13:42.531Z,2.80
2022-12-20T14:16:18.209Z,2.80
2022-12-20T14:18:57.708Z,2.80
2022-12-20T14:21:25.223Z,2.80
2022-12-20T14:23:54.471Z,2.80
2022-12-20T14:26:51.445Z,2.70
2022-12-20T14:29:29.357Z,2.70
2022-12-20T14:31:57.292Z,2.70
2022-12-20T14:34:31.449Z,2.70
2022-12-20T14:37:36.263Z,2.70
2022-12-20T14:40:09.606Z,2.70
2022-12-20T14:42:38.605Z,2.60
2022-12-20T14:45:14.482Z,2.60
2022-12-20T14:48:06.785Z,2.60
2022-12-20T14:50:36.357Z,2.50
2022-12-20T14:53:04.186Z,2.40
2022-12-20T14:55:36.588Z,2.30
2022-12-20T14:58:25.517Z,2.30
2022-12-20T15:01:07.792Z,2.30
2022-12-20T15:03:35.599Z,2.20
2022-12-20T15:06:06.164Z,2.10
2022-12-20T15:08:34.248Z,2.10
2022-12-20T15:11:13.452Z,2.10
2022-12-20T15:13:46.723Z,2.10
2022-12-20T15:16:22.571Z,2.00
2022-12-20T15:19:01.754Z,2.00
2022-12-20T15:21:36.185Z,2.00
2022-12-20T15:24:08.931Z,2.00
2022-12-20T15:26:36.481Z,2.00
2022-12-20T15:29:04.432Z,1.90
2022-12-20T15:31:35.680Z,2.00
2022-12-20T15:34:26.082Z,2.00
2022-12-20T15:36:53.527Z,2.00
2022-12-20T15:39:21.630Z,1.90
2022-12-20T15:41:49.263Z,1.90
2022-12-20T15:44:23.688Z,1.90
2022-12-20T15:46:51.375Z,1.90
2022-12-20T15:49:24.119Z,1.90
2022-12-20T15:51:53.081Z,1.90
2022-12-20T15:54:34.011Z,1.90
2022-12-20T15:57:03.552Z,1.90
2022-12-20T16:02:29.208Z,1.70
2022-12-20T16:04:57.788Z,1.80
2022-12-20T16:07:25.074Z,1.70
2022-12-20T16:09:52.240Z,1.70
2022-12-20T16:12:32.754Z,1.70
2022-12-20T16:15:00.007Z,1.70
2022-12-20T16:17:27.238Z,1.70
2022-12-20T16:19:55.429Z,1.70
2022-12-20T16:22:23.496Z,1.70
2022-12-20T16:24:51.747Z,1.70
2022-12-20T16:27:19.394Z,1.70
2022-12-20T16:29:46.508Z,1.70
2022-12-20T16:32:18.732Z,1.70
2022-12-20T16:34:46.076Z,1.70
2022-12-20T16:37:13.981Z,1.70
2022-12-20T16:39:41.999Z,1.70
2022-12-20T16:42:17.061Z,1.70
2022-12-20T16:44:45.677Z,1.70
2022-12-20T16:47:14.620Z,1.70
2022-12-20T16:49:51.180Z,1.70
2022-12-20T16:52:20.056Z,1.70
2022-12-20T16:54:47.238Z,1.70
2022-12-20T16:57:14.488Z,1.70
2022-12-20T16:59:41.739Z,1.70
2022-12-20T17:02:29.684Z,1.70
2022-12-20T17:04:57.161Z,1.70
2022-12-20T17:07:24.464Z,1.70
2022-12-20T17:12:36.594Z,1.70
2022-12-20T17:15:04.941Z,1.70
2022-12-20T17:17:32.145Z,1.70
2022-12-20T17:20:01.598Z,1.70
2022-12-20T17:25:30.251Z,1.70
2022-12-20T17:27:57.617Z,1.70
2022-12-20T17:30:25.404Z,1.60
2022-12-20T17:32:53.781Z,1.60
2022-12-20T17:35:32.388Z,1.60
2022-12-20T17:38:01.847Z,1.60
2022-12-20T17:40:29.180Z,1.60
2022-12-20T17:42:56.436Z,1.60
2022-12-20T17:45:33.154Z,1.60
2022-12-20T17:48:00.451Z,1.60
2022-12-20T17:50:27.866Z,1.60
2022-12-20T17:52:55.457Z,1.60
2022-12-20T17:55:27.463Z,1.60
2022-12-20T17:57:55.349Z,1.60
2022-12-20T18:00:36.389Z,1.60
2022-12-20T18:03:06.152Z,1.60
2022-12-20T18:05:33.543Z,1.60
2022-12-20T18:08:00.760Z,1.60
2022-12-20T18:10:28.008Z,1.50
2022-12-20T18:12:55.191Z,1.60
2022-12-20T18:15:22.557Z,1.50
2022-12-20T18:17:50.264Z,1.50
2022-12-20T18:20:17.580Z,1.50
2022-12-20T18:22:45.096Z,1.40
2022-12-20T18:25:13.950Z,1.40
2022-12-20T18:27:42.424Z,1.40
2022-12-20T18:30:12.171Z,1.40
2022-12-20T18:32:40.514Z,1.40
2022-12-20T18:35:09.329Z,1.40
2022-12-20T18:37:37.169Z,1.30
2022-12-20T18:40:06.520Z,1.40
2022-12-20T18:42:33.765Z,1.40
2022-12-20T18:45:00.934Z,1.30
2022-12-20T18:47:28.983Z,1.30
2022-12-20T18:49:56.196Z,1.30
2022-12-20T18:52:23.492Z,1.30
2022-12-20T18:54:51.072Z,1.30
2022-12-20T18:57:18.366Z,1.20
2022-12-20T18:59:45.642Z,1.20
2022-12-20T19:02:14.590Z,1.20
2022-12-20T19:04:41.977Z,1.30
2022-12-20T19:07:09.726Z,1.30
2022-12-20T19:09:37.130Z,1.30
2022-12-20T19:12:05.465Z,1.30
2022-12-20T19:14:32.675Z,1.30
2022-12-20T19:16:59.941Z,1.40
2022-12-20T19:19:27.289Z,1.30
2022-12-20T19:21:54.547Z,1.30
2022-12-20T19:24:21.863Z,1.30
2022-12-20T19:26:50.074Z,1.30
2022-12-20T19:29:18.070Z,1.30
2022-12-20T19:31:45.438Z,1.30
2022-12-20T19:34:12.919Z,1.30
2022-12-20T19:36:45.241Z,1.30
2022-12-20T19:39:17.525Z,1.30
2022-12-20T19:41:55.129Z,1.30
2022-12-20T19:44:32.014Z,1.20
2022-12-20T19:47:05.890Z,1.20
2022-12-20T19:49:33.624Z,1.20
2022-12-20T19:52:00.819Z,1.20
2022-12-20T19:54:28.956Z,1.20
2022-12-20T19:56:56.139Z,1.20
2022-12-20T19:59:23.496Z,1.20
2022-12-20T20:01:50.975Z,1.20
2022-12-20T20:04:18.827Z,1.20
2022-12-20T20:06:48.723Z,1.20
2022-12-20T20:09:16.054Z,1.20
2022-12-20T20:11:43.236Z,1.30
2022-12-20T20:14:10.530Z,1.20
2022-12-20T20:16:38.097Z,1.20
2022-12-20T20:19:05.626Z,1.20
2022-12-20T20:21:35.067Z,1.20
2022-12-20T20:24:02.361Z,1.30
2022-12-20T20:26:31.604Z,1.30
2022-12-20T20:29:00.584Z,1.30
2022-12-20T20:31:27.964Z,1.30
2022-12-20T20:33:56.805Z,1.30
2022-12-20T20:36:24.264Z,1.20
2022-12-20T20:38:52.490Z,1.20
2022-12-20T20:41:19.785Z,1.20
2022-12-20T20:43:54.271Z,1.20
2022-12-20T20:46:21.524Z,1.20
2022-12-20T20:48:48.913Z,1.20
2022-12-20T20:51:18.490Z,1.20
2022-12-20T20:53:45.718Z,1.20
2022-12-20T20:56:12.938Z,1.20
2022-12-20T20:58:40.141Z,1.20
2022-12-20T21:01:10.807Z,1.10
2022-12-20T21:03:40.657Z,1.20
2022-12-20T21:08:58.738Z,1.20
2022-12-20T21:11:26.098Z,1.10
2022-12-20T21:13:53.954Z,1.20
2022-12-20T21:16:28.773Z,1.20
2022-12-20T21:18:57.391Z,1.20
2022-12-20T21:21:25.493Z,1.20
2022-12-20T21:23:53.230Z,1.20
2022-12-20T21:26:21.033Z,1.20
2022-12-20T21:28:48.356Z,1.20
2022-12-20T21:31:17.910Z,1.20
2022-12-20T21:33:46.154Z,1.20
2022-12-20T21:36:18.059Z,1.20
2022-12-20T21:38:53.481Z,1.20
2022-12-20T21:41:23.272Z,1.20
2022-12-20T21:43:53.773Z,1.20
2022-12-20T21:46:23.645Z,1.20
2022-12-20T21:48:54.124Z,1.10
2022-12-20T21:51:23.638Z,1.10
2022-12-20T21:53:59.031Z,1.10
2022-12-20T21:56:36.220Z,1.20
2022-12-20T21:59:04.059Z,1.20
2022-12-20T22:01:31.388Z,1.10
2022-12-20T22:04:04.572Z,1.20
2022-12-20T22:06:38.003Z,1.20
2022-12-20T22:09:10.110Z,1.20
2022-12-20T22:11:38.237Z,1.10
2022-12-20T22:14:05.966Z,1.10
2022-12-20T22:16:34.878Z,1.20
2022-12-20T22:19:02.424Z,1.10
2022-12-20T22:21:31.629Z,1.10
2022-12-20T22:24:02.453Z,1.20
2022-12-20T22:26:31.701Z,1.20
2022-12-20T22:29:01.412Z,1.10
2022-12-20T22:31:28.802Z,1.10
2022-12-20T22:33:56.646Z,1.10
2022-12-20T22:36:23.970Z,1.00
2022-12-20T22:38:52.559Z,1.10
2022-12-20T22:41:22.664Z,1.10
2022-12-20T22:43:49.874Z,1.00
2022-12-20T22:49:04.865Z,0.90
2022-12-20T22:51:33.491Z,0.90
2022-12-20T22:54:01.021Z,0.90
2022-12-20T22:56:28.320Z,0.90
2022-12-20T22:58:56.036Z,0.90
2022-12-20T23:01:42.841Z,0.90
2022-12-20T23:04:10.340Z,0.90
2022-12-20T23:06:37.511Z,0.90
2022-12-20T23:09:04.667Z,0.90
2022-12-20T23:11:50.542Z,0.90
2022-12-20T23:14:38.452Z,0.90
2022-12-20T23:17:06.838Z,0.90
2022-12-20T23:19:54.067Z,0.90
2022-12-20T23:22:40.662Z,0.90
2022-12-20T23:25:10.657Z,0.80
2022-12-20T23:27:38.851Z,0.90
2022-12-20T23:30:08.860Z,0.90
2022-12-20T23:32:36.232Z,0.90
2022-12-20T23:35:12.410Z,1.00
2022-12-20T23:37:39.842Z,1.00
2022-12-20T23:40:08.205Z,1.00
2022-12-20T23:42:35.415Z,1.00
2022-12-20T23:45:02.584Z,1.10
2022-12-20T23:47:31.225Z,1.10
2022-12-20T23:49:58.399Z,1.00
2022-12-20T23:52:25.766Z,1.00
2022-12-20T23:54:53.019Z,1.00
2022-12-20T23:57:20.150Z,1.00
2022-12-20T23:59:47.313Z,1.00
